sensor_id;sensor_type;location;lat;lon;timestamp;pressure;altitude;pressure_sealevel;temperature;humidity
66742;BME280;53654;54.152;19.432;2023-05-12T00:00:05;102317.36;;;13.30;37.70
66742;BME280;53654;54.152;19.432;2023-05-12T00:03:00;102312.95;;;13.22;37.88
66742;BME280;53654;54.152;19.432;2023-05-12T00:05:30;102311.90;;;13.21;37.92
66742;BME280;53654;54.152;19.432;2023-05-12T00:07:59;102313.65;;;13.22;38.01
66742;BME280;53654;54.152;19.432;2023-05-12T00:10:27;102315.92;;;13.22;38.00
66742;BME280;53654;54.152;19.432;2023-05-12T00:12:55;102317.33;;;13.22;37.94
66742;BME280;53654;54.152;19.432;2023-05-12T00:15:23;102314.52;;;13.20;38.18
66742;BME280;53654;54.152;19.432;2023-05-12T00:17:51;102315.73;;;13.19;38.12
66742;BME280;53654;54.152;19.432;2023-05-12T00:20:19;102314.98;;;13.15;38.26
66742;BME280;53654;54.152;19.432;2023-05-12T00:22:48;102316.20;;;13.14;38.40
66742;BME280;53654;54.152;19.432;2023-05-12T00:25:16;102310.57;;;13.10;38.54
66742;BME280;53654;54.152;19.432;2023-05-12T00:27:44;102314.76;;;13.08;38.64
66742;BME280;53654;54.152;19.432;2023-05-12T00:30:13;102316.67;;;13.06;38.73
66742;BME280;53654;54.152;19.432;2023-05-12T00:32:41;102324.38;;;13.06;38.83
66742;BME280;53654;54.152;19.432;2023-05-12T00:35:09;102322.97;;;13.04;38.91
66742;BME280;53654;54.152;19.432;2023-05-12T00:37:37;102327.67;;;13.02;38.92
66742;BME280;53654;54.152;19.432;2023-05-12T00:40:06;102328.00;;;12.99;39.17
66742;BME280;53654;54.152;19.432;2023-05-12T00:42:34;102329.05;;;12.96;39.24
66742;BME280;53654;54.152;19.432;2023-05-12T00:45:03;102331.31;;;12.95;39.30
66742;BME280;53654;54.152;19.432;2023-05-12T00:47:32;102333.41;;;12.93;39.36
66742;BME280;53654;54.152;19.432;2023-05-12T00:50:02;102337.77;;;12.90;39.39
66742;BME280;53654;54.152;19.432;2023-05-12T00:52:30;102340.02;;;12.87;39.46
66742;BME280;53654;54.152;19.432;2023-05-12T00:54:59;102341.94;;;12.87;39.56
66742;BME280;53654;54.152;19.432;2023-05-12T00:57:29;102344.03;;;12.85;39.67
66742;BME280;53654;54.152;19.432;2023-05-12T00:59:57;102343.85;;;12.83;39.78
66742;BME280;53654;54.152;19.432;2023-05-12T01:02:25;102343.98;;;12.80;39.94
66742;BME280;53654;54.152;19.432;2023-05-12T01:04:54;102345.02;;;12.77;39.97
66742;BME280;53654;54.152;19.432;2023-05-12T01:07:24;102346.39;;;12.74;40.19
66742;BME280;53654;54.152;19.432;2023-05-12T01:09:57;102346.19;;;12.71;40.19
66742;BME280;53654;54.152;19.432;2023-05-12T01:12:26;102344.25;;;12.68;40.25
66742;BME280;53654;54.152;19.432;2023-05-12T01:14:56;102350.36;;;12.66;40.36
66742;BME280;53654;54.152;19.432;2023-05-12T01:17:28;102351.23;;;12.66;40.35
66742;BME280;53654;54.152;19.432;2023-05-12T01:20:00;102349.10;;;12.62;40.47
66742;BME280;53654;54.152;19.432;2023-05-12T01:22:31;102356.09;;;12.60;40.54
66742;BME280;53654;54.152;19.432;2023-05-12T01:25:03;102352.91;;;12.57;40.64
66742;BME280;53654;54.152;19.432;2023-05-12T01:27:32;102354.98;;;12.55;40.72
66742;BME280;53654;54.152;19.432;2023-05-12T01:30:03;102355.66;;;12.50;40.84
66742;BME280;53654;54.152;19.432;2023-05-12T01:32:35;102364.55;;;12.48;40.92
66742;BME280;53654;54.152;19.432;2023-05-12T01:35:06;102359.44;;;12.43;41.27
66742;BME280;53654;54.152;19.432;2023-05-12T01:37:36;102363.25;;;12.40;41.28
66742;BME280;53654;54.152;19.432;2023-05-12T01:40:05;102364.63;;;12.38;41.28
66742;BME280;53654;54.152;19.432;2023-05-12T01:42:36;102365.67;;;12.37;41.34
66742;BME280;53654;54.152;19.432;2023-05-12T01:45:05;102366.52;;;12.34;41.51
66742;BME280;53654;54.152;19.432;2023-05-12T01:47:33;102368.79;;;12.33;41.50
66742;BME280;53654;54.152;19.432;2023-05-12T01:50:05;102370.33;;;12.30;41.64
66742;BME280;53654;54.152;19.432;2023-05-12T01:52:34;102369.10;;;12.30;41.83
66742;BME280;53654;54.152;19.432;2023-05-12T01:55:03;102372.57;;;12.27;41.84
66742;BME280;53654;54.152;19.432;2023-05-12T01:57:44;102370.23;;;12.21;41.91
66742;BME280;53654;54.152;19.432;2023-05-12T02:00:13;102376.34;;;12.19;41.98
66742;BME280;53654;54.152;19.432;2023-05-12T02:02:41;102373.70;;;12.18;42.11
66742;BME280;53654;54.152;19.432;2023-05-12T02:05:11;102378.58;;;12.17;42.14
66742;BME280;53654;54.152;19.432;2023-05-12T02:07:40;102376.45;;;12.13;42.23
66742;BME280;53654;54.152;19.432;2023-05-12T02:10:09;102376.25;;;12.11;42.25
66742;BME280;53654;54.152;19.432;2023-05-12T02:12:37;102379.56;;;12.10;42.18
66742;BME280;53654;54.152;19.432;2023-05-12T02:15:06;102376.02;;;12.07;42.29
66742;BME280;53654;54.152;19.432;2023-05-12T02:17:37;102381.96;;;12.05;42.44
66742;BME280;53654;54.152;19.432;2023-05-12T02:20:06;102378.08;;;12.02;42.46
66742;BME280;53654;54.152;19.432;2023-05-12T02:22:35;102380.02;;;12.03;42.61
66742;BME280;53654;54.152;19.432;2023-05-12T02:25:03;102382.46;;;12.04;42.48
66742;BME280;53654;54.152;19.432;2023-05-12T02:27:32;102383.69;;;12.04;42.50
66742;BME280;53654;54.152;19.432;2023-05-12T02:30:00;102384.90;;;12.03;42.60
66742;BME280;53654;54.152;19.432;2023-05-12T02:32:28;102385.25;;;12.03;42.50
66742;BME280;53654;54.152;19.432;2023-05-12T02:34:57;102387.50;;;12.01;42.52
66742;BME280;53654;54.152;19.432;2023-05-12T02:37:25;102392.21;;;12.01;42.59
66742;BME280;53654;54.152;19.432;2023-05-12T02:39:53;102391.69;;;12.00;42.57
66742;BME280;53654;54.152;19.432;2023-05-12T02:42:21;102388.69;;;11.98;42.80
66742;BME280;53654;54.152;19.432;2023-05-12T02:44:49;102390.59;;;11.96;42.73
66742;BME280;53654;54.152;19.432;2023-05-12T02:47:17;102387.95;;;11.93;42.68
66742;BME280;53654;54.152;19.432;2023-05-12T02:49:45;102390.23;;;11.93;42.70
66742;BME280;53654;54.152;19.432;2023-05-12T02:52:14;102390.04;;;11.92;42.90
66742;BME280;53654;54.152;19.432;2023-05-12T02:54:42;102393.36;;;11.93;42.93
66742;BME280;53654;54.152;19.432;2023-05-12T02:57:10;102393.36;;;11.93;42.90
66742;BME280;53654;54.152;19.432;2023-05-12T02:59:38;102394.22;;;11.92;43.00
66742;BME280;53654;54.152;19.432;2023-05-12T03:02:06;102390.39;;;11.92;42.86
66742;BME280;53654;54.152;19.432;2023-05-12T03:04:34;102394.59;;;11.93;42.96
66742;BME280;53654;54.152;19.432;2023-05-12T03:07:04;102393.51;;;11.90;43.08
66742;BME280;53654;54.152;19.432;2023-05-12T03:09:33;102391.77;;;11.91;43.03
66742;BME280;53654;54.152;19.432;2023-05-12T03:12:01;102392.46;;;11.91;43.02
66742;BME280;53654;54.152;19.432;2023-05-12T03:14:29;102390.86;;;11.89;43.11
66742;BME280;53654;54.152;19.432;2023-05-12T03:16:58;102391.90;;;11.88;42.95
66742;BME280;53654;54.152;19.432;2023-05-12T03:19:26;102394.02;;;11.90;43.11
66742;BME280;53654;54.152;19.432;2023-05-12T03:21:54;102393.89;;;11.94;43.06
66742;BME280;53654;54.152;19.432;2023-05-12T03:24:22;102390.60;;;11.97;43.00
66742;BME280;53654;54.152;19.432;2023-05-12T03:26:51;102389.02;;;11.97;42.94
66742;BME280;53654;54.152;19.432;2023-05-12T03:29:20;102391.67;;;11.99;42.98
66742;BME280;53654;54.152;19.432;2023-05-12T03:31:48;102395.19;;;12.00;43.02
66742;BME280;53654;54.152;19.432;2023-05-12T03:34:16;102396.77;;;12.01;42.90
66742;BME280;53654;54.152;19.432;2023-05-12T03:36:44;102396.09;;;12.02;42.96
66742;BME280;53654;54.152;19.432;2023-05-12T03:39:12;102398.35;;;12.01;42.94
66742;BME280;53654;54.152;19.432;2023-05-12T03:41:40;102399.59;;;12.03;42.98
66742;BME280;53654;54.152;19.432;2023-05-12T03:44:08;102398.73;;;12.05;43.00
66742;BME280;53654;54.152;19.432;2023-05-12T03:46:37;102401.39;;;12.07;43.05
66742;BME280;53654;54.152;19.432;2023-05-12T03:49:06;102403.55;;;12.11;43.02
66742;BME280;53654;54.152;19.432;2023-05-12T03:51:34;102402.91;;;12.17;42.86
66742;BME280;53654;54.152;19.432;2023-05-12T03:54:02;102405.94;;;12.22;42.76
66742;BME280;53654;54.152;19.432;2023-05-12T03:56:31;102407.05;;;12.27;42.66
66742;BME280;53654;54.152;19.432;2023-05-12T03:58:59;102407.64;;;12.34;42.56
66742;BME280;53654;54.152;19.432;2023-05-12T04:01:27;102410.52;;;12.40;42.49
66742;BME280;53654;54.152;19.432;2023-05-12T04:03:55;102412.52;;;12.47;42.27
66742;BME280;53654;54.152;19.432;2023-05-12T04:06:24;102410.14;;;12.56;42.16
66742;BME280;53654;54.152;19.432;2023-05-12T04:08:52;102416.54;;;12.66;42.17
66742;BME280;53654;54.152;19.432;2023-05-12T04:11:20;102415.80;;;12.81;42.01
66742;BME280;53654;54.152;19.432;2023-05-12T04:13:48;102419.33;;;13.27;41.20
66742;BME280;53654;54.152;19.432;2023-05-12T04:16:16;102417.97;;;13.97;40.13
66742;BME280;53654;54.152;19.432;2023-05-12T04:18:44;102419.77;;;14.78;39.02
66742;BME280;53654;54.152;19.432;2023-05-12T04:21:12;102414.95;;;15.67;37.63
66742;BME280;53654;54.152;19.432;2023-05-12T04:23:40;102418.96;;;16.54;36.05
66742;BME280;53654;54.152;19.432;2023-05-12T04:26:08;102416.08;;;17.28;34.39
66742;BME280;53654;54.152;19.432;2023-05-12T04:28:37;102419.13;;;17.89;33.13
66742;BME280;53654;54.152;19.432;2023-05-12T04:31:05;102422.60;;;18.46;32.31
66742;BME280;53654;54.152;19.432;2023-05-12T04:33:34;102420.21;;;18.98;31.37
66742;BME280;53654;54.152;19.432;2023-05-12T04:36:03;102416.98;;;19.50;30.39
66742;BME280;53654;54.152;19.432;2023-05-12T04:38:32;102414.63;;;19.89;29.66
66742;BME280;53654;54.152;19.432;2023-05-12T04:41:01;102417.44;;;20.31;29.15
66742;BME280;53654;54.152;19.432;2023-05-12T04:43:29;102419.36;;;20.71;28.71
66742;BME280;53654;54.152;19.432;2023-05-12T04:46:00;102422.61;;;21.12;28.07
66742;BME280;53654;54.152;19.432;2023-05-12T04:48:28;102421.58;;;21.58;27.29
66742;BME280;53654;54.152;19.432;2023-05-12T04:50:59;102416.96;;;22.01;27.05
66742;BME280;53654;54.152;19.432;2023-05-12T04:53:28;102425.29;;;22.48;26.42
66742;BME280;53654;54.152;19.432;2023-05-12T04:55:56;102417.75;;;22.90;25.80
66742;BME280;53654;54.152;19.432;2023-05-12T04:58:26;102415.71;;;23.23;25.23
66742;BME280;53654;54.152;19.432;2023-05-12T05:00:55;102423.59;;;23.57;24.90
66742;BME280;53654;54.152;19.432;2023-05-12T05:03:24;102420.30;;;23.88;24.50
66742;BME280;53654;54.152;19.432;2023-05-12T05:05:52;102425.54;;;24.19;24.01
66742;BME280;53654;54.152;19.432;2023-05-12T05:08:20;102423.30;;;24.53;23.90
66742;BME280;53654;54.152;19.432;2023-05-12T05:10:48;102431.57;;;24.91;23.28
66742;BME280;53654;54.152;19.432;2023-05-12T05:13:17;102431.17;;;25.17;22.92
66742;BME280;53654;54.152;19.432;2023-05-12T05:15:51;102429.92;;;25.38;22.99
66742;BME280;53654;54.152;19.432;2023-05-12T05:18:20;102428.52;;;25.49;22.57
66742;BME280;53654;54.152;19.432;2023-05-12T05:20:52;102430.48;;;25.49;22.64
66742;BME280;53654;54.152;19.432;2023-05-12T05:23:23;102429.64;;;25.56;21.96
66742;BME280;53654;54.152;19.432;2023-05-12T05:25:51;102430.80;;;25.75;21.86
66742;BME280;53654;54.152;19.432;2023-05-12T05:28:19;102430.09;;;25.86;21.57
66742;BME280;53654;54.152;19.432;2023-05-12T05:30:47;102430.86;;;25.85;21.54
66742;BME280;53654;54.152;19.432;2023-05-12T05:33:16;102436.46;;;25.83;21.31
66742;BME280;53654;54.152;19.432;2023-05-12T05:35:44;102436.94;;;26.01;21.27
66742;BME280;53654;54.152;19.432;2023-05-12T05:38:13;102440.17;;;26.05;20.89
66742;BME280;53654;54.152;19.432;2023-05-12T05:40:41;102438.08;;;26.04;20.95
66742;BME280;53654;54.152;19.432;2023-05-12T05:43:20;102447.54;;;26.19;20.70
66742;BME280;53654;54.152;19.432;2023-05-12T05:45:49;102450.47;;;26.33;20.42
66742;BME280;53654;54.152;19.432;2023-05-12T05:48:20;102450.70;;;26.32;20.36
66742;BME280;53654;54.152;19.432;2023-05-12T05:50:50;102448.41;;;26.16;20.54
66742;BME280;53654;54.152;19.432;2023-05-12T05:53:19;102445.37;;;26.04;20.85
66742;BME280;53654;54.152;19.432;2023-05-12T05:55:48;102451.94;;;25.65;20.80
66742;BME280;53654;54.152;19.432;2023-05-12T05:58:16;102455.41;;;25.43;21.28
66742;BME280;53654;54.152;19.432;2023-05-12T06:00:45;102460.87;;;25.32;21.48
66742;BME280;53654;54.152;19.432;2023-05-12T06:03:13;102462.59;;;25.43;21.78
66742;BME280;53654;54.152;19.432;2023-05-12T06:05:42;102461.15;;;25.55;21.29
66742;BME280;53654;54.152;19.432;2023-05-12T06:08:11;102458.75;;;25.77;21.05
66742;BME280;53654;54.152;19.432;2023-05-12T06:10:40;102455.52;;;25.97;20.78
66742;BME280;53654;54.152;19.432;2023-05-12T06:13:08;102458.68;;;26.14;20.37
66742;BME280;53654;54.152;19.432;2023-05-12T06:15:37;102461.05;;;26.25;20.51
66742;BME280;53654;54.152;19.432;2023-05-12T06:18:05;102461.18;;;26.37;20.66
66742;BME280;53654;54.152;19.432;2023-05-12T06:20:33;102464.79;;;26.59;20.55
66742;BME280;53654;54.152;19.432;2023-05-12T06:23:01;102461.80;;;26.72;20.48
66742;BME280;53654;54.152;19.432;2023-05-12T06:25:29;102464.16;;;26.86;20.34
66742;BME280;53654;54.152;19.432;2023-05-12T06:28:00;102465.49;;;26.74;20.01
66742;BME280;53654;54.152;19.432;2023-05-12T06:30:29;102464.98;;;26.77;19.94
66742;BME280;53654;54.152;19.432;2023-05-12T06:32:57;102468.17;;;26.66;20.34
66742;BME280;53654;54.152;19.432;2023-05-12T06:35:27;102469.36;;;26.38;20.27
66742;BME280;53654;54.152;19.432;2023-05-12T06:37:55;102465.52;;;25.97;20.54
66742;BME280;53654;54.152;19.432;2023-05-12T06:40:23;102467.61;;;25.71;21.02
66742;BME280;53654;54.152;19.432;2023-05-12T06:42:53;102469.65;;;25.28;21.65
66742;BME280;53654;54.152;19.432;2023-05-12T06:45:21;102474.95;;;25.04;22.45
66742;BME280;53654;54.152;19.432;2023-05-12T06:47:51;102470.27;;;24.83;22.87
66742;BME280;53654;54.152;19.432;2023-05-12T06:50:19;102470.27;;;24.70;22.87
66742;BME280;53654;54.152;19.432;2023-05-12T06:52:51;102476.68;;;24.48;22.74
66742;BME280;53654;54.152;19.432;2023-05-12T06:55:20;102475.99;;;24.29;23.33
66742;BME280;53654;54.152;19.432;2023-05-12T06:57:49;102469.64;;;24.17;23.47
66742;BME280;53654;54.152;19.432;2023-05-12T07:00:23;102470.52;;;24.08;23.67
66742;BME280;53654;54.152;19.432;2023-05-12T07:02:51;102473.73;;;24.08;23.66
66742;BME280;53654;54.152;19.432;2023-05-12T07:05:19;102481.37;;;24.04;23.84
66742;BME280;53654;54.152;19.432;2023-05-12T07:07:48;102478.98;;;23.97;23.75
66742;BME280;53654;54.152;19.432;2023-05-12T07:10:16;102482.52;;;23.88;24.20
66742;BME280;53654;54.152;19.432;2023-05-12T07:12:44;102482.75;;;23.77;24.26
66742;BME280;53654;54.152;19.432;2023-05-12T07:15:12;102483.52;;;23.65;24.14
66742;BME280;53654;54.152;19.432;2023-05-12T07:17:40;102485.29;;;23.45;24.13
66742;BME280;53654;54.152;19.432;2023-05-12T07:20:09;102488.49;;;23.19;23.82
66742;BME280;53654;54.152;19.432;2023-05-12T07:22:37;102486.83;;;23.05;24.27
66742;BME280;53654;54.152;19.432;2023-05-12T07:25:06;102489.08;;;22.79;24.67
66742;BME280;53654;54.152;19.432;2023-05-12T07:27:34;102487.73;;;22.71;24.96
66742;BME280;53654;54.152;19.432;2023-05-12T07:30:05;102487.42;;;22.64;24.98
66742;BME280;53654;54.152;19.432;2023-05-12T07:32:33;102487.10;;;22.56;24.66
66742;BME280;53654;54.152;19.432;2023-05-12T07:35:01;102481.20;;;22.40;24.02
66742;BME280;53654;54.152;19.432;2023-05-12T07:37:30;102480.21;;;22.32;24.28
66742;BME280;53654;54.152;19.432;2023-05-12T07:39:59;102483.59;;;22.21;24.19
66742;BME280;53654;54.152;19.432;2023-05-12T07:42:27;102486.93;;;22.09;23.66
66742;BME280;53654;54.152;19.432;2023-05-12T07:44:55;102489.50;;;21.93;23.37
66742;BME280;53654;54.152;19.432;2023-05-12T07:47:23;102491.98;;;21.68;23.33
66742;BME280;53654;54.152;19.432;2023-05-12T07:49:51;102484.48;;;21.64;23.48
66742;BME280;53654;54.152;19.432;2023-05-12T07:52:20;102487.17;;;21.55;23.58
66742;BME280;53654;54.152;19.432;2023-05-12T07:54:48;102486.29;;;21.48;23.54
66742;BME280;53654;54.152;19.432;2023-05-12T07:57:16;102491.78;;;21.42;23.42
66742;BME280;53654;54.152;19.432;2023-05-12T07:59:44;102482.98;;;21.39;23.58
66742;BME280;53654;54.152;19.432;2023-05-12T08:02:12;102489.85;;;21.28;23.70
66742;BME280;53654;54.152;19.432;2023-05-12T08:04:40;102484.09;;;21.23;23.77
66742;BME280;53654;54.152;19.432;2023-05-12T08:07:11;102485.95;;;21.19;23.48
66742;BME280;53654;54.152;19.432;2023-05-12T08:09:39;102488.61;;;21.12;23.53
66742;BME280;53654;54.152;19.432;2023-05-12T08:12:07;102485.39;;;21.14;23.98
66742;BME280;53654;54.152;19.432;2023-05-12T08:14:36;102486.04;;;21.09;23.35
66742;BME280;53654;54.152;19.432;2023-05-12T08:17:04;102487.69;;;21.07;23.59
66742;BME280;53654;54.152;19.432;2023-05-12T08:19:33;102490.50;;;21.01;23.25
66742;BME280;53654;54.152;19.432;2023-05-12T08:22:01;102488.59;;;21.06;23.47
66742;BME280;53654;54.152;19.432;2023-05-12T08:24:30;102492.84;;;21.07;23.36
66742;BME280;53654;54.152;19.432;2023-05-12T08:26:58;102488.95;;;21.06;23.27
66742;BME280;53654;54.152;19.432;2023-05-12T08:29:26;102491.94;;;21.00;23.37
66742;BME280;53654;54.152;19.432;2023-05-12T08:31:54;102490.98;;;21.03;23.52
66742;BME280;53654;54.152;19.432;2023-05-12T08:34:23;102489.70;;;21.04;23.29
66742;BME280;53654;54.152;19.432;2023-05-12T08:36:52;102486.27;;;21.07;23.52
66742;BME280;53654;54.152;19.432;2023-05-12T08:39:21;102491.94;;;21.14;23.52
66742;BME280;53654;54.152;19.432;2023-05-12T08:44:30;102488.06;;;21.21;23.51
66742;BME280;53654;54.152;19.432;2023-05-12T08:47:00;102488.60;;;21.28;23.26
66742;BME280;53654;54.152;19.432;2023-05-12T08:49:30;102486.21;;;21.38;23.03
66742;BME280;53654;54.152;19.432;2023-05-12T08:52:03;102491.58;;;21.57;22.58
66742;BME280;53654;54.152;19.432;2023-05-12T08:54:32;102487.39;;;21.80;22.50
66742;BME280;53654;54.152;19.432;2023-05-12T08:57:08;102486.23;;;22.03;22.27
66742;BME280;53654;54.152;19.432;2023-05-12T08:59:38;102485.59;;;22.31;21.79
66742;BME280;53654;54.152;19.432;2023-05-12T09:02:10;102490.06;;;22.47;21.36
66742;BME280;53654;54.152;19.432;2023-05-12T09:04:40;102488.67;;;22.63;21.14
66742;BME280;53654;54.152;19.432;2023-05-12T09:07:09;102491.62;;;22.77;21.23
66742;BME280;53654;54.152;19.432;2023-05-12T09:09:39;102489.67;;;22.77;20.75
66742;BME280;53654;54.152;19.432;2023-05-12T09:12:12;102484.83;;;22.78;20.60
66742;BME280;53654;54.152;19.432;2023-05-12T09:14:44;102482.22;;;22.82;20.34
66742;BME280;53654;54.152;19.432;2023-05-12T09:17:13;102486.63;;;22.84;20.32
66742;BME280;53654;54.152;19.432;2023-05-12T09:19:41;102483.33;;;22.87;20.29
66742;BME280;53654;54.152;19.432;2023-05-12T09:22:09;102474.96;;;22.92;20.08
66742;BME280;53654;54.152;19.432;2023-05-12T09:24:41;102474.37;;;22.99;20.14
66742;BME280;53654;54.152;19.432;2023-05-12T09:27:12;102480.26;;;23.05;20.17
66742;BME280;53654;54.152;19.432;2023-05-12T09:29:47;102473.85;;;22.99;20.02
66742;BME280;53654;54.152;19.432;2023-05-12T09:32:30;102472.02;;;22.90;20.25
66742;BME280;53654;54.152;19.432;2023-05-12T09:35:08;102470.65;;;22.76;20.09
66742;BME280;53654;54.152;19.432;2023-05-12T09:37:39;102471.98;;;22.67;20.65
66742;BME280;53654;54.152;19.432;2023-05-12T09:40:08;102475.63;;;22.65;20.71
66742;BME280;53654;54.152;19.432;2023-05-12T09:42:41;102474.46;;;22.68;20.63
66742;BME280;53654;54.152;19.432;2023-05-12T09:45:10;102469.98;;;22.75;20.24
66742;BME280;53654;54.152;19.432;2023-05-12T09:47:40;102463.21;;;22.87;20.44
66742;BME280;53654;54.152;19.432;2023-05-12T09:50:09;102466.58;;;22.98;20.53
66742;BME280;53654;54.152;19.432;2023-05-12T09:52:38;102467.72;;;23.02;20.06
66742;BME280;53654;54.152;19.432;2023-05-12T09:55:09;102470.98;;;23.05;19.89
66742;BME280;53654;54.152;19.432;2023-05-12T09:57:39;102470.66;;;22.99;18.90
66742;BME280;53654;54.152;19.432;2023-05-12T10:00:10;102465.36;;;23.02;18.93
66742;BME280;53654;54.152;19.432;2023-05-12T10:03:06;102465.36;;;23.13;19.31
66742;BME280;53654;54.152;19.432;2023-05-12T10:05:42;102456.15;;;23.17;19.25
66742;BME280;53654;54.152;19.432;2023-05-12T10:08:18;102460.77;;;23.17;19.12
66742;BME280;53654;54.152;19.432;2023-05-12T10:10:50;102461.19;;;23.15;19.11
66742;BME280;53654;54.152;19.432;2023-05-12T10:13:19;102461.77;;;22.98;18.59
66742;BME280;53654;54.152;19.432;2023-05-12T10:15:48;102459.91;;;23.01;18.70
66742;BME280;53654;54.152;19.432;2023-05-12T10:18:18;102451.48;;;22.92;18.68
66742;BME280;53654;54.152;19.432;2023-05-12T10:20:46;102454.36;;;22.91;18.88
66742;BME280;53654;54.152;19.432;2023-05-12T10:23:17;102451.39;;;22.84;18.85
66742;BME280;53654;54.152;19.432;2023-05-12T10:25:46;102444.29;;;22.77;18.95
66742;BME280;53654;54.152;19.432;2023-05-12T10:28:14;102443.98;;;22.75;19.26
66742;BME280;53654;54.152;19.432;2023-05-12T10:30:44;102448.16;;;22.72;19.01
66742;BME280;53654;54.152;19.432;2023-05-12T10:33:13;102446.36;;;22.57;18.43
66742;BME280;53654;54.152;19.432;2023-05-12T10:35:43;102438.48;;;22.42;18.70
66742;BME280;53654;54.152;19.432;2023-05-12T10:38:15;102435.39;;;22.39;18.96
66742;BME280;53654;54.152;19.432;2023-05-12T10:41:00;102432.64;;;22.30;19.29
66742;BME280;53654;54.152;19.432;2023-05-12T10:43:40;102434.95;;;22.18;19.45
66742;BME280;53654;54.152;19.432;2023-05-12T10:46:18;102426.96;;;22.06;19.42
66742;BME280;53654;54.152;19.432;2023-05-12T10:51:33;102424.44;;;21.95;19.71
66742;BME280;53654;54.152;19.432;2023-05-12T10:54:06;102427.86;;;21.93;19.77
66742;BME280;53654;54.152;19.432;2023-05-12T11:07:05;102408.60;;;21.83;20.07
66742;BME280;53654;54.152;19.432;2023-05-12T11:09:40;102408.45;;;21.82;20.51
66742;BME280;53654;54.152;19.432;2023-05-12T11:12:28;102405.38;;;21.84;20.96
66742;BME280;53654;54.152;19.432;2023-05-12T11:15:00;102402.68;;;21.91;20.90
66742;BME280;53654;54.152;19.432;2023-05-12T11:17:29;102404.90;;;22.01;21.11
66742;BME280;53654;54.152;19.432;2023-05-12T11:20:00;102405.81;;;22.06;20.69
66742;BME280;53654;54.152;19.432;2023-05-12T11:22:28;102406.58;;;22.05;20.28
66742;BME280;53654;54.152;19.432;2023-05-12T11:24:56;102405.46;;;21.99;20.51
66742;BME280;53654;54.152;19.432;2023-05-12T11:27:25;102406.41;;;21.97;20.59
66742;BME280;53654;54.152;19.432;2023-05-12T11:30:00;102405.52;;;21.91;20.73
66742;BME280;53654;54.152;19.432;2023-05-12T11:32:29;102405.49;;;21.86;20.62
66742;BME280;53654;54.152;19.432;2023-05-12T11:35:15;102400.60;;;21.83;20.15
66742;BME280;53654;54.152;19.432;2023-05-12T11:37:44;102405.07;;;21.76;20.77
66742;BME280;53654;54.152;19.432;2023-05-12T11:40:13;102404.63;;;21.73;20.23
66742;BME280;53654;54.152;19.432;2023-05-12T11:42:43;102407.81;;;21.74;20.74
66742;BME280;53654;54.152;19.432;2023-05-12T11:45:27;102402.56;;;21.77;20.59
66742;BME280;53654;54.152;19.432;2023-05-12T11:48:13;102407.02;;;21.77;20.35
66742;BME280;53654;54.152;19.432;2023-05-12T11:50:44;102400.39;;;21.72;20.16
66742;BME280;53654;54.152;19.432;2023-05-12T11:53:17;102385.92;;;21.69;20.54
66742;BME280;53654;54.152;19.432;2023-05-12T11:55:50;102399.70;;;21.72;21.38
66742;BME280;53654;54.152;19.432;2023-05-12T11:58:21;102404.29;;;21.73;21.28
66742;BME280;53654;54.152;19.432;2023-05-12T12:00:50;102407.19;;;21.64;20.38
66742;BME280;53654;54.152;19.432;2023-05-12T12:03:18;102399.41;;;21.64;20.57
66742;BME280;53654;54.152;19.432;2023-05-12T12:05:58;102398.36;;;21.63;21.04
66742;BME280;53654;54.152;19.432;2023-05-12T12:08:27;102408.17;;;21.61;20.94
66742;BME280;53654;54.152;19.432;2023-05-12T12:10:55;102399.57;;;21.64;20.83
66742;BME280;53654;54.152;19.432;2023-05-12T12:13:24;102396.80;;;21.68;20.66
66742;BME280;53654;54.152;19.432;2023-05-12T12:15:52;102400.48;;;21.70;21.01
66742;BME280;53654;54.152;19.432;2023-05-12T12:18:21;102403.16;;;21.69;20.74
66742;BME280;53654;54.152;19.432;2023-05-12T12:20:49;102397.63;;;21.70;20.51
66742;BME280;53654;54.152;19.432;2023-05-12T12:23:17;102398.08;;;21.67;20.42
66742;BME280;53654;54.152;19.432;2023-05-12T12:25:45;102400.05;;;21.66;20.60
66742;BME280;53654;54.152;19.432;2023-05-12T12:28:13;102409.80;;;21.67;20.69
66742;BME280;53654;54.152;19.432;2023-05-12T12:30:41;102409.34;;;21.64;20.43
66742;BME280;53654;54.152;19.432;2023-05-12T12:33:09;102397.28;;;21.63;20.39
66742;BME280;53654;54.152;19.432;2023-05-12T12:35:38;102390.90;;;21.63;20.49
66742;BME280;53654;54.152;19.432;2023-05-12T12:38:06;102392.27;;;21.65;20.72
66742;BME280;53654;54.152;19.432;2023-05-12T12:40:34;102399.40;;;21.58;20.68
66742;BME280;53654;54.152;19.432;2023-05-12T12:43:02;102398.23;;;21.61;20.70
66742;BME280;53654;54.152;19.432;2023-05-12T12:45:30;102398.42;;;21.61;20.78
66742;BME280;53654;54.152;19.432;2023-05-12T12:47:58;102394.59;;;21.58;20.59
66742;BME280;53654;54.152;19.432;2023-05-12T12:50:26;102391.86;;;21.61;20.93
66742;BME280;53654;54.152;19.432;2023-05-12T12:52:55;102382.33;;;21.59;20.39
66742;BME280;53654;54.152;19.432;2023-05-12T12:55:22;102381.21;;;21.61;20.77
66742;BME280;53654;54.152;19.432;2023-05-12T12:57:51;102383.06;;;21.64;20.85
66742;BME280;53654;54.152;19.432;2023-05-12T13:00:19;102382.91;;;21.63;20.70
66742;BME280;53654;54.152;19.432;2023-05-12T13:02:50;102378.92;;;21.60;20.74
66742;BME280;53654;54.152;19.432;2023-05-12T13:05:18;102379.93;;;21.55;20.56
66742;BME280;53654;54.152;19.432;2023-05-12T13:07:47;102374.92;;;21.57;20.83